createdAt,value
2023-01-25T00:03:27.610Z,-0.36
2023-01-25T00:08:30.979Z,-0.39
2023-01-25T00:13:34.769Z,-0.38
2023-01-25T00:18:40.433Z,-0.41
2023-01-25T00:23:43.892Z,-0.41
2023-01-25T00:28:47.292Z,-0.36
2023-01-25T00:33:53.021Z,-0.47
2023-01-25T00:38:58.519Z,-0.43
2023-01-25T00:44:01.857Z,-0.46
2023-01-25T00:49:06.291Z,-0.47
2023-01-25T00:54:09.994Z,-0.51
2023-01-25T00:59:13.481Z,-0.47
2023-01-25T01:04:17.421Z,-0.58
2023-01-25T01:09:23.570Z,-0.62
2023-01-25T01:14:27.590Z,-0.65
2023-01-25T01:19:33.632Z,-0.66
2023-01-25T01:24:37.006Z,-0.64
2023-01-25T01:29:40.418Z,-0.64
2023-01-25T01:34:44.479Z,-0.52
2023-01-25T01:39:47.748Z,-0.55
2023-01-25T01:44:52.197Z,-0.61
2023-01-25T01:49:56.142Z,-0.59
2023-01-25T01:54:59.238Z,-0.61
2023-01-25T02:00:02.551Z,-0.72
2023-01-25T02:05:06.037Z,-0.64
2023-01-25T02:10:09.478Z,-0.64
2023-01-25T02:15:12.667Z,-0.64
2023-01-25T02:20:17.039Z,-0.69
2023-01-25T02:25:20.202Z,-0.68
2023-01-25T02:30:25.096Z,-0.66
2023-01-25T02:35:28.275Z,-0.63
2023-01-25T02:40:31.452Z,-0.59
2023-01-25T02:45:34.911Z,-0.60
2023-01-25T02:50:38.222Z,-0.63
2023-01-25T02:55:41.385Z,-0.58
2023-01-25T03:00:44.647Z,-0.51
2023-01-25T03:05:47.967Z,-0.58
2023-01-25T03:10:51.339Z,-0.49
2023-01-25T03:15:54.525Z,-0.60
2023-01-25T03:20:58.043Z,-0.55
2023-01-25T03:26:01.247Z,-0.69
2023-01-25T03:31:06.395Z,-0.73
2023-01-25T03:36:10.297Z,-0.74
2023-01-25T03:41:14.921Z,-0.75
2023-01-25T03:46:19.393Z,-0.68
2023-01-25T03:51:22.663Z,-0.67
2023-01-25T03:56:26.144Z,-0.61
2023-01-25T04:01:30.337Z,-0.63
2023-01-25T04:06:33.768Z,-0.76
2023-01-25T04:11:37.099Z,-0.79
2023-01-25T04:16:40.729Z,-0.84
2023-01-25T04:21:46.621Z,-0.86
2023-01-25T04:26:51.981Z,-0.83
2023-01-25T04:31:55.279Z,-0.86
2023-01-25T04:36:58.875Z,-0.84
2023-01-25T04:42:02.112Z,-0.81
2023-01-25T04:47:06.058Z,-0.71
2023-01-25T04:52:09.371Z,-0.90
2023-01-25T04:57:13.256Z,-0.84
2023-01-25T05:02:16.776Z,-0.83
2023-01-25T05:07:20.017Z,-0.78
2023-01-25T05:12:23.393Z,-0.71
2023-01-25T05:17:26.636Z,-0.82
2023-01-25T05:22:34.285Z,-0.78
2023-01-25T05:27:37.627Z,-0.79
2023-01-25T05:32:41.023Z,-0.77
2023-01-25T05:37:44.207Z,-0.80
2023-01-25T05:42:47.390Z,-0.85
2023-01-25T05:47:51.843Z,-0.78
2023-01-25T05:52:55.465Z,-0.76
2023-01-25T05:57:58.715Z,-0.85
2023-01-25T06:03:02.074Z,-0.87
2023-01-25T06:08:05.459Z,-0.88
2023-01-25T06:13:09.144Z,-0.82
2023-01-25T06:18:12.358Z,-0.88
2023-01-25T06:23:16.081Z,-0.83
2023-01-25T06:28:19.519Z,-0.69
2023-01-25T06:33:23.182Z,-0.62
2023-01-25T06:38:26.574Z,-0.84
2023-01-25T06:43:30.208Z,-0.78
2023-01-25T06:48:33.311Z,-0.68
2023-01-25T06:53:36.614Z,-0.63
2023-01-25T06:58:39.822Z,-0.60
2023-01-25T07:03:43.737Z,-0.58
2023-01-25T07:08:46.950Z,-0.75
2023-01-25T07:13:52.205Z,-0.75
2023-01-25T07:18:55.711Z,-0.93
2023-01-25T07:24:03.745Z,-0.83
2023-01-25T07:29:07.289Z,-0.94
2023-01-25T07:44:50.696Z,-0.88
2023-01-25T07:49:55.027Z,-0.82
2023-01-25T07:55:02.030Z,-0.72
2023-01-25T08:00:08.314Z,-0.82
2023-01-25T08:05:19.536Z,-0.90
2023-01-25T08:10:23.176Z,-1.10
2023-01-25T08:15:26.459Z,-1.04
2023-01-25T08:20:31.090Z,-0.92
2023-01-25T08:25:34.674Z,-0.96
2023-01-25T08:30:45.802Z,-1.02
2023-01-25T08:35:55.706Z,-0.79
2023-01-25T08:40:59.383Z,-0.67
2023-01-25T08:46:02.489Z,-0.67
2023-01-25T08:51:07.163Z,-0.62
2023-01-25T08:56:11.103Z,-0.83
2023-01-25T09:01:17.146Z,-0.82
2023-01-25T09:06:28.435Z,-0.77
2023-01-25T09:11:31.803Z,-0.75
2023-01-25T09:16:36.864Z,-0.84
2023-01-25T09:21:44.196Z,-0.98
2023-01-25T09:27:03.384Z,-0.84
2023-01-25T09:32:22.603Z,-0.82
2023-01-25T09:37:26.380Z,-0.69
2023-01-25T09:42:30.051Z,-0.56
2023-01-25T09:47:34.614Z,-0.53
2023-01-25T09:52:40.047Z,-0.55
2023-01-25T09:57:43.532Z,-0.64
2023-01-25T10:02:54.794Z,-0.82
2023-01-25T10:08:06.192Z,-0.75
2023-01-25T10:13:10.786Z,-0.94
2023-01-25T10:18:14.075Z,-0.91
2023-01-25T10:23:17.319Z,-0.94
2023-01-25T10:28:20.579Z,-0.87
2023-01-25T10:33:24.073Z,-0.75
2023-01-25T10:38:27.296Z,-0.81
2023-01-25T10:43:30.720Z,-0.78
2023-01-25T10:48:34.425Z,-0.75
2023-01-25T10:58:56.900Z,-0.69
2023-01-25T11:04:00.355Z,-0.61
2023-01-25T11:09:03.727Z,-0.73
2023-01-25T11:14:12.327Z,-0.78
2023-01-25T11:19:15.706Z,-0.91
2023-01-25T11:24:23.524Z,-0.79
2023-01-25T11:29:27.568Z,-0.78
2023-01-25T11:34:32.383Z,-0.86
2023-01-25T11:39:36.090Z,-0.81
2023-01-25T11:44:39.652Z,-0.83
2023-01-25T11:49:43.243Z,-0.49
2023-01-25T11:54:46.423Z,-0.64
2023-01-25T11:59:52.347Z,-0.48
2023-01-25T12:04:55.476Z,-0.69
2023-01-25T12:09:58.903Z,-0.61
2023-01-25T12:15:03.553Z,-0.67
2023-01-25T12:20:08.070Z,-0.95
2023-01-25T12:25:11.698Z,-0.85
2023-01-25T12:30:14.919Z,-0.66
2023-01-25T12:35:18.314Z,-0.62
2023-01-25T12:40:21.777Z,-0.53
2023-01-25T12:45:25.857Z,-0.82
2023-01-25T12:50:29.135Z,-0.66
2023-01-25T12:55:32.526Z,-0.75
2023-01-25T13:00:35.958Z,-0.79
2023-01-25T13:05:39.725Z,-0.86
2023-01-25T13:10:45.410Z,-0.94
2023-01-25T13:15:49.803Z,-0.93
2023-01-25T13:20:53.431Z,-0.83
2023-01-25T13:25:57.522Z,-0.71
2023-01-25T13:31:00.960Z,-0.74
2023-01-25T13:36:04.501Z,-0.79
2023-01-25T13:41:12.489Z,-0.97
2023-01-25T13:46:16.114Z,-0.92
2023-01-25T13:51:21.314Z,-1.03
2023-01-25T13:56:23.987Z,-0.91
2023-01-25T14:01:29.350Z,-1.04
2023-01-25T14:06:33.438Z,-1.03
2023-01-25T14:11:50.106Z,-1.06
2023-01-25T14:16:56.631Z,-1.13
2023-01-25T14:22:00.679Z,-1.18
2023-01-25T14:27:03.917Z,-1.15
2023-01-25T14:32:06.960Z,-1.18
2023-01-25T14:37:13.386Z,-1.06
2023-01-25T14:42:16.661Z,-0.98
2023-01-25T14:47:19.514Z,-1.11
2023-01-25T14:52:22.466Z,-1.21
2023-01-25T14:57:25.624Z,-1.22
2023-01-25T15:02:28.543Z,-1.23
2023-01-25T15:07:32.410Z,-1.10
2023-01-25T15:12:50.012Z,-1.20
2023-01-25T15:17:54.866Z,-1.11
2023-01-25T15:22:57.790Z,-0.98
2023-01-25T15:28:00.493Z,-0.99
2023-01-25T15:33:03.359Z,-1.00
2023-01-25T15:38:06.395Z,-0.92
2023-01-25T15:43:09.166Z,-1.12
2023-01-25T15:48:14.868Z,-1.15
2023-01-25T15:53:19.202Z,-1.04
2023-01-25T15:58:26.510Z,-1.10
2023-01-25T16:03:30.719Z,-1.06
2023-01-25T16:08:37.150Z,-1.19
2023-01-25T16:13:41.765Z,-1.21
2023-01-25T16:18:47.295Z,-1.23
2023-01-25T16:23:54.582Z,-1.12
2023-01-25T16:28:57.829Z,-1.12
2023-01-25T16:34:05.327Z,-1.20
2023-01-25T16:39:10.005Z,-1.07
2023-01-25T16:44:13.416Z,-1.11
2023-01-25T16:49:16.072Z,-1.09
2023-01-25T16:54:22.146Z,-1.08
2023-01-25T16:59:25.492Z,-1.09
2023-01-25T17:04:29.385Z,-1.06
2023-01-25T17:09:33.131Z,-1.18
2023-01-25T17:14:36.354Z,-1.05
2023-01-25T17:19:39.650Z,-1.24
2023-01-25T17:29:16.683Z,-1.18
2023-01-25T17:34:19.829Z,-1.25
2023-01-25T17:40:13.617Z,-1.13
2023-01-25T17:45:15.988Z,-1.16
2023-01-25T17:50:18.318Z,-1.22
2023-01-25T17:55:20.674Z,-1.15
2023-01-25T18:00:23.011Z,-1.28
2023-01-25T18:05:25.389Z,-1.28
2023-01-25T18:10:28.287Z,-1.17
2023-01-25T18:15:30.671Z,-1.15
2023-01-25T18:20:51.680Z,-1.17
2023-01-25T18:25:56.719Z,-1.17
2023-01-25T18:30:59.142Z,-1.06
2023-01-25T18:36:03.807Z,-1.12
2023-01-25T18:41:08.037Z,-1.25
2023-01-25T18:46:11.525Z,-1.19
2023-01-25T18:51:38.958Z,-1.02
2023-01-25T18:56:47.389Z,-1.14
2023-01-25T19:01:49.767Z,-1.38
2023-01-25T19:06:56.650Z,-1.31
2023-01-25T19:11:59.003Z,-1.00
2023-01-25T19:17:01.348Z,-0.90
2023-01-25T19:22:03.703Z,-1.01
2023-01-25T19:27:06.066Z,-1.36
2023-01-25T19:32:10.681Z,-1.43
2023-01-25T19:37:12.978Z,-1.42
2023-01-25T19:42:18.397Z,-1.23
2023-01-25T19:47:20.964Z,-1.17
2023-01-25T19:52:23.495Z,-1.27
2023-01-25T19:57:26.230Z,-1.17
2023-01-25T20:02:28.821Z,-1.23
2023-01-25T20:07:31.475Z,-1.28
2023-01-25T20:12:34.030Z,-1.43
2023-01-25T20:17:36.771Z,-1.49
2023-01-25T20:22:39.270Z,-1.42
2023-01-25T20:27:41.761Z,-1.47
2023-01-25T20:32:44.323Z,-1.37
2023-01-25T20:37:49.289Z,-1.23
2023-01-25T20:42:52.082Z,-1.10
2023-01-25T20:47:54.685Z,-1.02
2023-01-25T20:52:57.222Z,-0.98
2023-01-25T20:57:59.759Z,-0.92
2023-01-25T21:03:02.378Z,-0.90
2023-01-25T21:08:05.276Z,-0.87
2023-01-25T21:13:07.746Z,-0.94
2023-01-25T21:18:10.244Z,-0.88
2023-01-25T21:23:12.763Z,-1.14
2023-01-25T21:28:15.343Z,-1.19
2023-01-25T21:33:17.782Z,-1.20
2023-01-25T21:38:20.163Z,-1.29
2023-01-25T21:43:22.634Z,-1.30
2023-01-25T21:48:39.046Z,-1.34
2023-01-25T21:53:41.599Z,-1.42
2023-01-25T21:58:44.176Z,-1.31
2023-01-25T22:03:46.561Z,-1.11
2023-01-25T22:08:48.955Z,-0.98
2023-01-25T22:13:51.271Z,-0.91
2023-01-25T22:18:53.650Z,-1.22
2023-01-25T22:23:56.024Z,-1.49
2023-01-25T22:28:58.413Z,-1.40
2023-01-25T22:34:00.921Z,-1.55
2023-01-25T22:39:03.292Z,-1.59
2023-01-25T22:44:05.630Z,-1.76
2023-01-25T22:49:08.194Z,-1.76
2023-01-25T22:54:10.536Z,-1.78
2023-01-25T22:59:14.843Z,-1.52
2023-01-25T23:04:17.226Z,-1.50
2023-01-25T23:09:19.564Z,-1.67
2023-01-25T23:14:39.370Z,-1.86
2023-01-25T23:19:41.795Z,-1.87
2023-01-25T23:24:44.547Z,-1.61
2023-01-25T23:29:46.976Z,-1.63
2023-01-25T23:34:53.057Z,-1.49
2023-01-25T23:39:55.882Z,-1.65
2023-01-25T23:44:59.276Z,-1.97
2023-01-25T23:50:01.690Z,-1.81
2023-01-25T23:55:04.430Z,-1.64
